Ahlsell — OYZH — position and weather

sailwx.info

Track history (hours):
 
Tides and Currents Weather Stations Pressure Air Temp Water Temp Dewpoint Dewpoint Depression Visibility Wind Speed Wind Dir Waves Ship Positions

Ahlsell

Last reported at 2016-May-27 15:33 UTC. Time now 2016-May-27 16:00 UTC.
Position N 55°06' E 014°41'.

Length 40 m; draft 4 m.

Type: Dredging. MMSI: 219000852.

Date/timePositionNaut miles runAvg speedWind from/ knotsBaromVisibWave heightAir tempDewpointWater temp
2016-May-27 15:33N 55°06' E 014°41'0 0.0
2016-May-27 14:33N 55°06' E 014°41'4 3.5
2016-May-27 13:33N 55°02' E 014°40'0 0.0
2016-May-27 12:34N 55°02' E 014°40'0 0.0
2016-May-27 11:33N 55°02' E 014°40'0 0.0
2016-May-27 10:34N 55°02' E 014°40'4 3.6
2016-May-27 09:34N 55°06' E 014°41'0 0.0
2016-May-27 08:34N 55°06' E 014°41'0 0.0
2016-May-27 07:33N 55°06' E 014°41'0 0.0
2016-May-27 06:34N 55°06' E 014°41'0 0.0
2016-May-27 05:34N 55°06' E 014°41'0 0.0
2016-May-27 04:34N 55°06' E 014°41'0 0.0
2016-May-27 03:33N 55°06' E 014°41'0 0.0
2016-May-27 02:34N 55°06' E 014°41'0 0.0
2016-May-27 01:34N 55°06' E 014°41'0 0.0
2016-May-27 00:34N 55°06' E 014°41'0 0.0
2016-May-26 23:33N 55°06' E 014°41'0 0.0
2016-May-26 22:34N 55°06' E 014°41'0 0.0
2016-May-26 21:34N 55°06' E 014°41'0 0.0
2016-May-26 20:34N 55°06' E 014°41'0 0.0
2016-May-26 19:33N 55°06' E 014°41'0 0.0
2016-May-26 18:34N 55°06' E 014°41'0 0.0
2016-May-26 17:34N 55°06' E 014°41'0 0.0
2016-May-26 16:34N 55°06' E 014°41'0 0.0
2016-May-26 15:33N 55°06' E 014°41'0 0.0
2016-May-26 14:34N 55°06' E 014°41'0 0.0
2016-May-26 13:33N 55°06' E 014°41'0 0.0
2016-May-26 12:33N 55°06' E 014°41'6 6.3
2016-May-26 11:34N 55°01' E 014°49'8 8.1
2016-May-26 10:33N 54°58' E 015°02'7 7.0
2016-May-26 09:33N 55°04' E 015°09'1 0.5
2016-May-26 08:30N 55°03' E 015°08'0 0.0
2016-May-26 07:33N 55°03' E 015°08'0 0.0
2016-May-26 06:33N 55°03' E 015°08'0 0.0
2016-May-26 05:32N 55°03' E 015°08'0 0.0
2016-May-26 04:32N 55°03' E 015°08'0 0.0
2016-May-26 03:33N 55°03' E 015°08'0 0.0
2016-May-26 02:33N 55°03' E 015°08'0 0.0
2016-May-26 01:27N 55°03' E 015°08'0 0.0
2016-May-26 00:22N 55°03' E 015°08'0 0.0
2016-May-25 23:31N 55°03' E 015°08'0 0.0
2016-May-25 22:33N 55°03' E 015°08'0 0.0
2016-May-25 21:33N 55°03' E 015°08'0 0.0
2016-May-25 20:33N 55°03' E 015°08'0 0.0
2016-May-25 19:28N 55°03' E 015°08'0 0.0
2016-May-25 18:33N 55°03' E 015°08'0 0.0
2016-May-25 17:28N 55°03' E 015°08'0 0.0
2016-May-25 16:33N 55°03' E 015°08'0 0.0
2016-May-25 14:29N 55°03' E 015°08'0 0.0
2016-May-25 13:28N 55°03' E 015°08'0 0.0
2016-May-25 12:29N 55°03' E 015°08'0 0.0
2016-May-25 11:27N 55°03' E 015°08'0 0.0
2016-May-25 10:34N 55°03' E 015°08'0 0.0
2016-May-25 09:27N 55°03' E 015°08'0 0.0
2016-May-25 08:34N 55°03' E 015°08'0 0.0
2016-May-25 07:11N 55°03' E 015°08'0 0.0
2016-May-25 04:28N 55°03' E 015°08'0 0.0
2016-May-25 03:33N 55°03' E 015°08'0 0.0
2016-May-25 02:33N 55°03' E 015°08'0 0.0
2016-May-25 01:33N 55°03' E 015°08'0 0.0
2016-May-25 00:31N 55°03' E 015°08'0 0.0
2016-May-24 23:33N 55°03' E 015°08'0 0.0
2016-May-24 22:31N 55°03' E 015°08'0 0.0
2016-May-24 21:33N 55°03' E 015°08'0 0.0
2016-May-24 20:32N 55°03' E 015°08'0 0.0
2016-May-24 19:32N 55°03' E 015°08'0 0.0
2016-May-24 18:33N 55°03' E 015°08'0 0.0
2016-May-24 17:33N 55°03' E 015°08'0 0.0
2016-May-24 16:30N 55°03' E 015°08'0 0.0
2016-May-24 13:22N 55°03' E 015°08'0 0.0
2016-May-24 12:33N 55°03' E 015°08'0 0.0
2016-May-24 11:32N 55°03' E 015°08'0 0.0
2016-May-24 10:26N 55°03' E 015°08'0 0.0
2016-May-24 09:20N 55°03' E 015°08'0 0.0
2016-May-24 08:33N 55°03' E 015°08'0 0.0
2016-May-24 07:33N 55°03' E 015°08'0 0.0
2016-May-24 06:33N 55°03' E 015°08'0 0.0
2016-May-24 05:32N 55°03' E 015°08'0 0.0
2016-May-24 04:25N 55°03' E 015°08'0 0.0
2016-May-24 03:33N 55°03' E 015°08'0 0.0
2016-May-24 02:33N 55°03' E 015°08'0 0.0
2016-May-24 01:31N 55°03' E 015°08'0 0.0
2016-May-24 00:31N 55°03' E 015°08'0 0.0
2016-May-23 23:32N 55°03' E 015°08'0 0.0
2016-May-23 22:32N 55°03' E 015°08'0 0.0
2016-May-23 21:33N 55°03' E 015°08'0 0.0
2016-May-23 20:33N 55°03' E 015°08'0 0.0
2016-May-23 19:29N 55°03' E 015°08'0 0.0
2016-May-23 18:32N 55°03' E 015°08'0 0.0
2016-May-23 17:33N 55°03' E 015°08'0 0.0
2016-May-23 16:24N 55°03' E 015°08'0 0.0
2016-May-23 15:30N 55°03' E 015°08'0 0.0
2016-May-23 14:33N 55°03' E 015°08'0 0.0
2016-May-23 13:33N 55°03' E 015°08'0 0.0
2016-May-23 12:30N 55°03' E 015°08'0 0.0
2016-May-23 11:32N 55°03' E 015°08'0 0.4
2016-May-23 10:28N 55°04' E 015°08'6 6.6
2016-May-23 09:33N 54°59' E 015°03'8 8.2
2016-May-23 08:34N 55°01' E 014°50'7 7.1
2016-May-23 07:34N 55°06' E 014°41'0 0.0
2016-May-23 06:34N 55°06' E 014°41'0 0.0
2016-May-23 05:34N 55°06' E 014°41'2 2.0
2016-May-23 04:33N 55°04' E 014°41'0 0.0
2016-May-23 03:34N 55°04' E 014°41'0 0.0
2016-May-23 02:33N 55°04' E 014°41'0 0.1
2016-May-23 01:34N 55°04' E 014°41'2 1.9
2016-May-23 00:33N 55°06' E 014°41'0 0.0
2016-May-22 23:33N 55°06' E 014°41'1 0.7
2016-May-22 22:34N 55°05' E 014°40'2 1.5
2016-May-22 21:34N 55°04' E 014°41'0 0.0
2016-May-22 20:34N 55°04' E 014°41'0 0.0
2016-May-22 19:34N 55°04' E 014°41'0 0.0
2016-May-22 18:33N 55°04' E 014°41'2 1.9
2016-May-22 17:34N 55°06' E 014°41'0 0.0
2016-May-22 16:34N 55°06' E 014°41'1 1.1
2016-May-22 15:34N 55°05' E 014°40'1 1.3
2016-May-22 14:33N 55°04' E 014°41'0 0.0
2016-May-22 13:34N 55°04' E 014°41'0 0.0
2016-May-22 12:34N 55°04' E 014°41'0 0.0
2016-May-22 11:33N 55°04' E 014°41'0 0.1
2016-May-22 10:34N 55°04' E 014°41'2 2.0
2016-May-22 09:34N 55°06' E 014°41'0 0.0
2016-May-22 08:34N 55°06' E 014°41'2 2.4
2016-May-22 07:34N 55°04' E 014°40'1 1.5
2016-May-22 06:33N 55°02' E 014°41'0 0.0
2016-May-22 05:34N 55°02' E 014°41'0 0.0
2016-May-22 04:34N 55°02' E 014°41'0 0.0
2016-May-22 03:34N 55°02' E 014°41'4 3.9
2016-May-22 02:34N 55°06' E 014°41'0 0.0
2016-May-22 01:34N 55°06' E 014°41'0 0.0
2016-May-22 00:34N 55°06' E 014°41'4 3.9
2016-May-21 23:34N 55°02' E 014°41'0 0.0
2016-May-21 22:33N 55°02' E 014°41'0 0.0
2016-May-21 21:34N 55°02' E 014°41'0 0.0
2016-May-21 20:33N 55°02' E 014°41'0 0.0
2016-May-21 19:34N 55°02' E 014°41'0 0.0
2016-May-21 18:34N 55°02' E 014°41'0 0.0
2016-May-21 17:34N 55°02' E 014°41'3 2.9
2016-May-21 16:34N 55°05' E 014°40'1 1.1
2016-May-21 15:34N 55°06' E 014°41'0 0.0
2016-May-21 14:34N 55°06' E 014°41'3 3.2
2016-May-21 13:34N 55°03' E 014°40'1 0.7
2016-May-21 12:34N 55°02' E 014°41'0 0.0
2016-May-21 11:34N 55°02' E 014°41'0 0.0
2016-May-21 10:34N 55°02' E 014°41'0 0.0
2016-May-21 09:34N 55°02' E 014°41'3 3.0
2016-May-21 08:34N 55°05' E 014°40'1 1.0
2016-May-21 07:34N 55°06' E 014°41'0 0.0
2016-May-21 06:34N 55°06' E 014°41'4 3.9
2016-May-21 05:33N 55°02' E 014°41'0 0.0
2016-May-21 04:34N 55°02' E 014°41'0 0.0
2016-May-21 03:34N 55°02' E 014°41'0 0.0
2016-May-21 02:34N 55°02' E 014°41'4 3.9
2016-May-21 01:34N 55°06' E 014°41'0 0.0
2016-May-21 00:34N 55°06' E 014°41'1 1.1
2016-May-20 23:34N 55°05' E 014°40'3 2.9
2016-May-20 22:34N 55°02' E 014°41'0 0.0
2016-May-20 21:34N 55°02' E 014°41'0 0.1
2016-May-20 20:34N 55°02' E 014°41'0 0.1
2016-May-20 19:34N 55°02' E 014°41'1 1.0
2016-May-20 18:34N 55°03' E 014°40'3 3.0
2016-May-20 17:34N 55°06' E 014°41'0 0.0
2016-May-20 16:34N 55°06' E 014°41'4 3.9
2016-May-20 15:34N 55°02' E 014°41'0 0.0
2016-May-20 14:34N 55°02' E 014°41'0 0.0
2016-May-20 13:33N 55°02' E 014°41'0 0.0
2016-May-20 12:33N 55°02' E 014°41'0 0.0
2016-May-20 11:33N 55°02' E 014°41'0 0.0
2016-May-20 10:33N 55°02' E 014°41'0 0.0
2016-May-20 09:33N 55°02' E 014°41'4 4.0
2016-May-20 08:34N 55°06' E 014°41'0 0.0
2016-May-20 07:34N 55°06' E 014°41'1 0.8
2016-May-20 06:34N 55°05' E 014°41'3 3.3
2016-May-20 05:34N 55°02' E 014°41'0 0.1
2016-May-20 04:33N 55°02' E 014°41'0 0.0
2016-May-20 03:34N 55°02' E 014°41'0 0.1
2016-May-20 02:34N 55°02' E 014°41'0 0.0
2016-May-20 01:33N 55°02' E 014°41'0 0.0
2016-May-20 00:33N 55°02' E 014°41'4 4.0
2016-May-19 23:34N 55°06' E 014°41'0 0.0
2016-May-19 22:33N 55°06' E 014°41'1 1.3
2016-May-19 21:34N 55°05' E 014°40'3 2.7
2016-May-19 20:34N 55°02' E 014°41'0 0.0
2016-May-19 19:34N 55°02' E 014°41'0 0.1
2016-May-19 18:33N 55°02' E 014°41'0 0.1
2016-May-19 17:34N 55°02' E 014°41'0 0.0
2016-May-19 16:34N 55°02' E 014°41'0 0.0
2016-May-19 15:33N 55°02' E 014°41'0 0.0
2016-May-19 14:34N 55°02' E 014°41'4 4.0
2016-May-19 13:34N 55°06' E 014°41'0 0.0
2016-May-19 12:33N 55°06' E 014°41'0 0.4
2016-May-19 11:34N 55°06' E 014°41'4 3.6
2016-May-19 10:34N 55°02' E 014°41'0 0.0
2016-May-19 09:33N 55°02' E 014°41'0 0.0
2016-May-19 08:34N 55°02' E 014°41'0 0.0
2016-May-19 07:33N 55°02' E 014°41'0 0.1
2016-May-19 06:34N 55°02' E 014°41'3 3.0
2016-May-19 05:34N 55°05' E 014°40'1 1.1
2016-May-19 04:34N 55°06' E 014°41'0 0.2
2016-May-19 03:34N 55°06' E 014°41'4 3.9
2016-May-19 02:34N 55°02' E 014°41'0 0.1
2016-May-19 01:33N 55°02' E 014°41'0 0.0
2016-May-19 00:33N 55°02' E 014°41'0 0.0
2016-May-18 23:33N 55°02' E 014°41'0 0.0
2016-May-18 22:34N 55°02' E 014°41'0 0.0
2016-May-18 21:34N 55°02' E 014°41'0 0.0
2016-May-18 20:34N 55°02' E 014°41'4 4.0
2016-May-18 19:34N 55°06' E 014°41'0 0.0
2016-May-18 18:34N 55°06' E 014°41'0 0.0
2016-May-18 17:34N 55°06' E 014°41'0 0.0
2016-May-18 16:34N 55°06' E 014°41'0 0.0
2016-May-18 15:34N 55°06' E 014°41'0 0.0
2016-May-18 14:34N 55°06' E 014°41'0 0.0
2016-May-18 13:34N 55°06' E 014°41'4 3.5
2016-May-18 12:33N 55°02' E 014°40'0 0.0
2016-May-18 11:34N 55°02' E 014°40'0 0.0
2016-May-18 10:33N 55°02' E 014°40'0 0.0
2016-May-18 09:33N 55°02' E 014°40'0 0.0
2016-May-18 08:34N 55°02' E 014°40'3 2.6
2016-May-18 07:34N 55°05' E 014°41'1 1.0
2016-May-18 06:34N 55°06' E 014°41'0 0.0
2016-May-18 05:34N 55°06' E 014°41'0 0.3
2016-May-18 04:34N 55°06' E 014°41'3 3.2
2016-May-18 03:33N 55°02' E 014°40'0 0.1
2016-May-18 02:34N 55°03' E 014°40'0 0.0
2016-May-18 01:34N 55°03' E 014°41'0 0.0
2016-May-18 00:33N 55°03' E 014°41'2 1.7
2016-May-17 23:34N 55°04' E 014°41'2 1.7
2016-May-17 22:34N 55°06' E 014°41'0 0.0
2016-May-17 21:34N 55°06' E 014°41'2 2.0
2016-May-17 20:34N 55°04' E 014°41'0 0.0
2016-May-17 19:34N 55°04' E 014°41'0 0.0
2016-May-17 18:34N 55°04' E 014°41'0 0.0
2016-May-17 17:34N 55°04' E 014°41'2 2.0
2016-May-17 16:34N 55°06' E 014°41'0 0.0
2016-May-17 15:34N 55°06' E 014°41'  
Track history (hours):
 
Tides and Currents Weather Stations Pressure Air Temp Water Temp Dewpoint Dewpoint Depression Visibility Wind Speed Wind Dir Waves Ship Positions

Ahlsell

Last reported at 2016-May-27 15:33 UTC. Time now 2016-May-27 16:00 UTC.
Position N 55°06' E 014°41'.

Length 40 m; draft 4 m.

Type: Dredging. MMSI: 219000852.

Date/timePositionNaut miles runAvg speedWind from/ knotsBaromVisibWave heightAir tempDewpointWater temp
2016-May-27 15:33N 55°06' E 014°41'0 0.0
2016-May-27 14:33N 55°06' E 014°41'4 3.5
2016-May-27 13:33N 55°02' E 014°40'0 0.0
2016-May-27 12:34N 55°02' E 014°40'0 0.0
2016-May-27 11:33N 55°02' E 014°40'0 0.0
2016-May-27 10:34N 55°02' E 014°40'4 3.6
2016-May-27 09:34N 55°06' E 014°41'0 0.0
2016-May-27 08:34N 55°06' E 014°41'0 0.0
2016-May-27 07:33N 55°06' E 014°41'0 0.0
2016-May-27 06:34N 55°06' E 014°41'0 0.0
2016-May-27 05:34N 55°06' E 014°41'0 0.0
2016-May-27 04:34N 55°06' E 014°41'0 0.0
2016-May-27 03:33N 55°06' E 014°41'0 0.0
2016-May-27 02:34N 55°06' E 014°41'0 0.0
2016-May-27 01:34N 55°06' E 014°41'0 0.0
2016-May-27 00:34N 55°06' E 014°41'0 0.0
2016-May-26 23:33N 55°06' E 014°41'0 0.0
2016-May-26 22:34N 55°06' E 014°41'0 0.0
2016-May-26 21:34N 55°06' E 014°41'0 0.0
2016-May-26 20:34N 55°06' E 014°41'0 0.0
2016-May-26 19:33N 55°06' E 014°41'0 0.0
2016-May-26 18:34N 55°06' E 014°41'0 0.0
2016-May-26 17:34N 55°06' E 014°41'0 0.0
2016-May-26 16:34N 55°06' E 014°41'0 0.0
2016-May-26 15:33N 55°06' E 014°41'0 0.0
2016-May-26 14:34N 55°06' E 014°41'0 0.0
2016-May-26 13:33N 55°06' E 014°41'0 0.0
2016-May-26 12:33N 55°06' E 014°41'6 6.3
2016-May-26 11:34N 55°01' E 014°49'8 8.1
2016-May-26 10:33N 54°58' E 015°02'7 7.0
2016-May-26 09:33N 55°04' E 015°09'1 0.5
2016-May-26 08:30N 55°03' E 015°08'0 0.0
2016-May-26 07:33N 55°03' E 015°08'0 0.0
2016-May-26 06:33N 55°03' E 015°08'0 0.0
2016-May-26 05:32N 55°03' E 015°08'0 0.0
2016-May-26 04:32N 55°03' E 015°08'0 0.0
2016-May-26 03:33N 55°03' E 015°08'0 0.0
2016-May-26 02:33N 55°03' E 015°08'0 0.0
2016-May-26 01:27N 55°03' E 015°08'0 0.0
2016-May-26 00:22N 55°03' E 015°08'0 0.0
2016-May-25 23:31N 55°03' E 015°08'0 0.0
2016-May-25 22:33N 55°03' E 015°08'0 0.0
2016-May-25 21:33N 55°03' E 015°08'0 0.0
2016-May-25 20:33N 55°03' E 015°08'0 0.0
2016-May-25 19:28N 55°03' E 015°08'0 0.0
2016-May-25 18:33N 55°03' E 015°08'0 0.0
2016-May-25 17:28N 55°03' E 015°08'0 0.0
2016-May-25 16:33N 55°03' E 015°08'0 0.0
2016-May-25 14:29N 55°03' E 015°08'0 0.0
2016-May-25 13:28N 55°03' E 015°08'0 0.0
2016-May-25 12:29N 55°03' E 015°08'0 0.0
2016-May-25 11:27N 55°03' E 015°08'0 0.0
2016-May-25 10:34N 55°03' E 015°08'0 0.0
2016-May-25 09:27N 55°03' E 015°08'0 0.0
2016-May-25 08:34N 55°03' E 015°08'0 0.0
2016-May-25 07:11N 55°03' E 015°08'0 0.0
2016-May-25 04:28N 55°03' E 015°08'0 0.0
2016-May-25 03:33N 55°03' E 015°08'0 0.0
2016-May-25 02:33N 55°03' E 015°08'0 0.0
2016-May-25 01:33N 55°03' E 015°08'0 0.0
2016-May-25 00:31N 55°03' E 015°08'0 0.0
2016-May-24 23:33N 55°03' E 015°08'0 0.0
2016-May-24 22:31N 55°03' E 015°08'0 0.0
2016-May-24 21:33N 55°03' E 015°08'0 0.0
2016-May-24 20:32N 55°03' E 015°08'0 0.0
2016-May-24 19:32N 55°03' E 015°08'0 0.0
2016-May-24 18:33N 55°03' E 015°08'0 0.0
2016-May-24 17:33N 55°03' E 015°08'0 0.0
2016-May-24 16:30N 55°03' E 015°08'0 0.0
2016-May-24 13:22N 55°03' E 015°08'0 0.0
2016-May-24 12:33N 55°03' E 015°08'0 0.0
2016-May-24 11:32N 55°03' E 015°08'0 0.0
2016-May-24 10:26N 55°03' E 015°08'0 0.0
2016-May-24 09:20N 55°03' E 015°08'0 0.0
2016-May-24 08:33N 55°03' E 015°08'0 0.0
2016-May-24 07:33N 55°03' E 015°08'0 0.0
2016-May-24 06:33N 55°03' E 015°08'0 0.0
2016-May-24 05:32N 55°03' E 015°08'0 0.0
2016-May-24 04:25N 55°03' E 015°08'0 0.0
2016-May-24 03:33N 55°03' E 015°08'0 0.0
2016-May-24 02:33N 55°03' E 015°08'0 0.0
2016-May-24 01:31N 55°03' E 015°08'0 0.0
2016-May-24 00:31N 55°03' E 015°08'0 0.0
2016-May-23 23:32N 55°03' E 015°08'0 0.0
2016-May-23 22:32N 55°03' E 015°08'0 0.0
2016-May-23 21:33N 55°03' E 015°08'0 0.0
2016-May-23 20:33N 55°03' E 015°08'0 0.0
2016-May-23 19:29N 55°03' E 015°08'0 0.0
2016-May-23 18:32N 55°03' E 015°08'0 0.0
2016-May-23 17:33N 55°03' E 015°08'0 0.0
2016-May-23 16:24N 55°03' E 015°08'0 0.0
2016-May-23 15:30N 55°03' E 015°08'0 0.0
2016-May-23 14:33N 55°03' E 015°08'0 0.0
2016-May-23 13:33N 55°03' E 015°08'0 0.0
2016-May-23 12:30N 55°03' E 015°08'0 0.0
2016-May-23 11:32N 55°03' E 015°08'0 0.4
2016-May-23 10:28N 55°04' E 015°08'6 6.6
2016-May-23 09:33N 54°59' E 015°03'8 8.2
2016-May-23 08:34N 55°01' E 014°50'7 7.1
2016-May-23 07:34N 55°06' E 014°41'0 0.0
2016-May-23 06:34N 55°06' E 014°41'0 0.0
2016-May-23 05:34N 55°06' E 014°41'2 2.0
2016-May-23 04:33N 55°04' E 014°41'0 0.0
2016-May-23 03:34N 55°04' E 014°41'0 0.0
2016-May-23 02:33N 55°04' E 014°41'0 0.1
2016-May-23 01:34N 55°04' E 014°41'2 1.9
2016-May-23 00:33N 55°06' E 014°41'0 0.0
2016-May-22 23:33N 55°06' E 014°41'1 0.7
2016-May-22 22:34N 55°05' E 014°40'2 1.5
2016-May-22 21:34N 55°04' E 014°41'0 0.0
2016-May-22 20:34N 55°04' E 014°41'0 0.0
2016-May-22 19:34N 55°04' E 014°41'0 0.0
2016-May-22 18:33N 55°04' E 014°41'2 1.9
2016-May-22 17:34N 55°06' E 014°41'0 0.0
2016-May-22 16:34N 55°06' E 014°41'1 1.1
2016-May-22 15:34N 55°05' E 014°40'1 1.3
2016-May-22 14:33N 55°04' E 014°41'0 0.0
2016-May-22 13:34N 55°04' E 014°41'0 0.0
2016-May-22 12:34N 55°04' E 014°41'0 0.0
2016-May-22 11:33N 55°04' E 014°41'0 0.1
2016-May-22 10:34N 55°04' E 014°41'2 2.0
2016-May-22 09:34N 55°06' E 014°41'0 0.0
2016-May-22 08:34N 55°06' E 014°41'2 2.4
2016-May-22 07:34N 55°04' E 014°40'1 1.5
2016-May-22 06:33N 55°02' E 014°41'0 0.0
2016-May-22 05:34N 55°02' E 014°41'0 0.0
2016-May-22 04:34N 55°02' E 014°41'0 0.0
2016-May-22 03:34N 55°02' E 014°41'4 3.9
2016-May-22 02:34N 55°06' E 014°41'0 0.0
2016-May-22 01:34N 55°06' E 014°41'0 0.0
2016-May-22 00:34N 55°06' E 014°41'4 3.9
2016-May-21 23:34N 55°02' E 014°41'0 0.0
2016-May-21 22:33N 55°02' E 014°41'0 0.0
2016-May-21 21:34N 55°02' E 014°41'0 0.0
2016-May-21 20:33N 55°02' E 014°41'0 0.0
2016-May-21 19:34N 55°02' E 014°41'0 0.0
2016-May-21 18:34N 55°02' E 014°41'0 0.0
2016-May-21 17:34N 55°02' E 014°41'3 2.9
2016-May-21 16:34N 55°05' E 014°40'1 1.1
2016-May-21 15:34N 55°06' E 014°41'0 0.0
2016-May-21 14:34N 55°06' E 014°41'3 3.2
2016-May-21 13:34N 55°03' E 014°40'1 0.7
2016-May-21 12:34N 55°02' E 014°41'0 0.0
2016-May-21 11:34N 55°02' E 014°41'0 0.0
2016-May-21 10:34N 55°02' E 014°41'0 0.0
2016-May-21 09:34N 55°02' E 014°41'3 3.0
2016-May-21 08:34N 55°05' E 014°40'1 1.0
2016-May-21 07:34N 55°06' E 014°41'0 0.0
2016-May-21 06:34N 55°06' E 014°41'4 3.9
2016-May-21 05:33N 55°02' E 014°41'0 0.0
2016-May-21 04:34N 55°02' E 014°41'0 0.0
2016-May-21 03:34N 55°02' E 014°41'0 0.0
2016-May-21 02:34N 55°02' E 014°41'4 3.9
2016-May-21 01:34N 55°06' E 014°41'0 0.0
2016-May-21 00:34N 55°06' E 014°41'1 1.1
2016-May-20 23:34N 55°05' E 014°40'3 2.9
2016-May-20 22:34N 55°02' E 014°41'0 0.0
2016-May-20 21:34N 55°02' E 014°41'0 0.1
2016-May-20 20:34N 55°02' E 014°41'0 0.1
2016-May-20 19:34N 55°02' E 014°41'1 1.0
2016-May-20 18:34N 55°03' E 014°40'3 3.0
2016-May-20 17:34N 55°06' E 014°41'0 0.0
2016-May-20 16:34N 55°06' E 014°41'4 3.9
2016-May-20 15:34N 55°02' E 014°41'0 0.0
2016-May-20 14:34N 55°02' E 014°41'0 0.0
2016-May-20 13:33N 55°02' E 014°41'0 0.0
2016-May-20 12:33N 55°02' E 014°41'0 0.0
2016-May-20 11:33N 55°02' E 014°41'0 0.0
2016-May-20 10:33N 55°02' E 014°41'0 0.0
2016-May-20 09:33N 55°02' E 014°41'4 4.0
2016-May-20 08:34N 55°06' E 014°41'0 0.0
2016-May-20 07:34N 55°06' E 014°41'1 0.8
2016-May-20 06:34N 55°05' E 014°41'3 3.3
2016-May-20 05:34N 55°02' E 014°41'0 0.1
2016-May-20 04:33N 55°02' E 014°41'0 0.0
2016-May-20 03:34N 55°02' E 014°41'0 0.1
2016-May-20 02:34N 55°02' E 014°41'0 0.0
2016-May-20 01:33N 55°02' E 014°41'0 0.0
2016-May-20 00:33N 55°02' E 014°41'4 4.0
2016-May-19 23:34N 55°06' E 014°41'0 0.0
2016-May-19 22:33N 55°06' E 014°41'1 1.3
2016-May-19 21:34N 55°05' E 014°40'3 2.7
2016-May-19 20:34N 55°02' E 014°41'0 0.0
2016-May-19 19:34N 55°02' E 014°41'0 0.1
2016-May-19 18:33N 55°02' E 014°41'0 0.1
2016-May-19 17:34N 55°02' E 014°41'0 0.0
2016-May-19 16:34N 55°02' E 014°41'0 0.0
2016-May-19 15:33N 55°02' E 014°41'0 0.0
2016-May-19 14:34N 55°02' E 014°41'4 4.0
2016-May-19 13:34N 55°06' E 014°41'0 0.0
2016-May-19 12:33N 55°06' E 014°41'0 0.4
2016-May-19 11:34N 55°06' E 014°41'4 3.6
2016-May-19 10:34N 55°02' E 014°41'0 0.0
2016-May-19 09:33N 55°02' E 014°41'0 0.0
2016-May-19 08:34N 55°02' E 014°41'0 0.0
2016-May-19 07:33N 55°02' E 014°41'0 0.1
2016-May-19 06:34N 55°02' E 014°41'3 3.0
2016-May-19 05:34N 55°05' E 014°40'1 1.1
2016-May-19 04:34N 55°06' E 014°41'0 0.2
2016-May-19 03:34N 55°06' E 014°41'4 3.9
2016-May-19 02:34N 55°02' E 014°41'0 0.1
2016-May-19 01:33N 55°02' E 014°41'0 0.0
2016-May-19 00:33N 55°02' E 014°41'0 0.0
2016-May-18 23:33N 55°02' E 014°41'0 0.0
2016-May-18 22:34N 55°02' E 014°41'0 0.0
2016-May-18 21:34N 55°02' E 014°41'0 0.0
2016-May-18 20:34N 55°02' E 014°41'4 4.0
2016-May-18 19:34N 55°06' E 014°41'0 0.0
2016-May-18 18:34N 55°06' E 014°41'0 0.0
2016-May-18 17:34N 55°06' E 014°41'0 0.0
2016-May-18 16:34N 55°06' E 014°41'0 0.0
2016-May-18 15:34N 55°06' E 014°41'0 0.0
2016-May-18 14:34N 55°06' E 014°41'0 0.0
2016-May-18 13:34N 55°06' E 014°41'4 3.5
2016-May-18 12:33N 55°02' E 014°40'0 0.0
2016-May-18 11:34N 55°02' E 014°40'0 0.0
2016-May-18 10:33N 55°02' E 014°40'0 0.0
2016-May-18 09:33N 55°02' E 014°40'0 0.0
2016-May-18 08:34N 55°02' E 014°40'3 2.6
2016-May-18 07:34N 55°05' E 014°41'1 1.0
2016-May-18 06:34N 55°06' E 014°41'0 0.0
2016-May-18 05:34N 55°06' E 014°41'0 0.3
2016-May-18 04:34N 55°06' E 014°41'3 3.2
2016-May-18 03:33N 55°02' E 014°40'0 0.1
2016-May-18 02:34N 55°03' E 014°40'0 0.0
2016-May-18 01:34N 55°03' E 014°41'0 0.0
2016-May-18 00:33N 55°03' E 014°41'2 1.7
2016-May-17 23:34N 55°04' E 014°41'2 1.7
2016-May-17 22:34N 55°06' E 014°41'0 0.0
2016-May-17 21:34N 55°06' E 014°41'2 2.0
2016-May-17 20:34N 55°04' E 014°41'0 0.0
2016-May-17 19:34N 55°04' E 014°41'0 0.0
2016-May-17 18:34N 55°04' E 014°41'0 0.0
2016-May-17 17:34N 55°04' E 014°41'2 2.0
2016-May-17 16:34N 55°06' E 014°41'0 0.0
2016-May-17 15:34N 55°06' E 014°41'  

Dump ship's entire track history